sensor_id;sensor_type;location;lat;lon;timestamp;temperature;humidity
81315;DHT22;72214;52.510;5.718;2023-11-19T00:01:55;12.70;86.50
81315;DHT22;72214;52.510;5.718;2023-11-19T00:04:24;12.80;86.40
81315;DHT22;72214;52.510;5.718;2023-11-19T00:06:55;12.80;86.50
81315;DHT22;72214;52.510;5.718;2023-11-19T00:09:30;12.80;86.50
81315;DHT22;72214;52.510;5.718;2023-11-19T00:12:00;12.80;86.50
81315;DHT22;72214;52.510;5.718;2023-11-19T00:14:30;12.80;86.50
81315;DHT22;72214;52.510;5.718;2023-11-19T00:16:59;12.80;86.50
81315;DHT22;72214;52.510;5.718;2023-11-19T00:19:30;12.80;86.50
81315;DHT22;72214;52.510;5.718;2023-11-19T00:22:02;12.90;86.50
81315;DHT22;72214;52.510;5.718;2023-11-19T00:24:31;12.80;86.50
81315;DHT22;72214;52.510;5.718;2023-11-19T00:27:00;12.90;86.50
81315;DHT22;72214;52.510;5.718;2023-11-19T00:29:29;12.80;86.50
81315;DHT22;72214;52.510;5.718;2023-11-19T00:31:58;12.80;86.50
81315;DHT22;72214;52.510;5.718;2023-11-19T00:34:28;12.80;86.50
81315;DHT22;72214;52.510;5.718;2023-11-19T00:36:57;12.80;86.40
81315;DHT22;72214;52.510;5.718;2023-11-19T00:39:28;12.80;86.50
81315;DHT22;72214;52.510;5.718;2023-11-19T00:41:58;12.80;86.50
81315;DHT22;72214;52.510;5.718;2023-11-19T00:44:27;12.80;86.50
81315;DHT22;72214;52.510;5.718;2023-11-19T00:46:56;12.80;86.50
81315;DHT22;72214;52.510;5.718;2023-11-19T00:49:25;12.80;86.40
81315;DHT22;72214;52.510;5.718;2023-11-19T00:51:55;12.80;86.50
81315;DHT22;72214;52.510;5.718;2023-11-19T00:54:27;12.80;86.50
81315;DHT22;72214;52.510;5.718;2023-11-19T00:56:57;12.80;86.50
81315;DHT22;72214;52.510;5.718;2023-11-19T00:59:27;12.80;86.50
81315;DHT22;72214;52.510;5.718;2023-11-19T01:01:57;12.80;86.50
81315;DHT22;72214;52.510;5.718;2023-11-19T01:04:29;12.80;86.50
81315;DHT22;72214;52.510;5.718;2023-11-19T01:06:58;12.80;86.50
81315;DHT22;72214;52.510;5.718;2023-11-19T01:09:30;12.80;86.50
81315;DHT22;72214;52.510;5.718;2023-11-19T01:12:01;12.80;86.50
81315;DHT22;72214;52.510;5.718;2023-11-19T01:14:30;12.80;86.40
81315;DHT22;72214;52.510;5.718;2023-11-19T01:17:01;12.80;86.40
81315;DHT22;72214;52.510;5.718;2023-11-19T01:19:31;12.80;86.40
81315;DHT22;72214;52.510;5.718;2023-11-19T01:22:00;12.80;86.40
81315;DHT22;72214;52.510;5.718;2023-11-19T01:24:32;12.80;86.50
81315;DHT22;72214;52.510;5.718;2023-11-19T01:27:01;12.70;86.40
81315;DHT22;72214;52.510;5.718;2023-11-19T01:29:30;12.70;86.50
81315;DHT22;72214;52.510;5.718;2023-11-19T01:32:00;12.60;86.50
81315;DHT22;72214;52.510;5.718;2023-11-19T01:34:29;12.60;86.50
81315;DHT22;72214;52.510;5.718;2023-11-19T01:36:58;12.50;86.60
81315;DHT22;72214;52.510;5.718;2023-11-19T01:39:27;12.60;86.50
81315;DHT22;72214;52.510;5.718;2023-11-19T01:41:59;12.60;86.50
81315;DHT22;72214;52.510;5.718;2023-11-19T01:44:28;12.50;86.50
81315;DHT22;72214;52.510;5.718;2023-11-19T01:46:58;12.50;86.50
81315;DHT22;72214;52.510;5.718;2023-11-19T01:49:27;12.50;86.50
81315;DHT22;72214;52.510;5.718;2023-11-19T01:51:58;12.50;86.50
81315;DHT22;72214;52.510;5.718;2023-11-19T01:54:28;12.50;86.50
81315;DHT22;72214;52.510;5.718;2023-11-19T01:57:02;12.50;86.50
81315;DHT22;72214;52.510;5.718;2023-11-19T01:59:32;12.50;86.50
81315;DHT22;72214;52.510;5.718;2023-11-19T02:02:01;12.50;86.40
81315;DHT22;72214;52.510;5.718;2023-11-19T02:04:31;12.50;86.40
81315;DHT22;72214;52.510;5.718;2023-11-19T02:07:01;12.50;86.40
81315;DHT22;72214;52.510;5.718;2023-11-19T02:09:30;12.50;86.40
81315;DHT22;72214;52.510;5.718;2023-11-19T02:12:03;12.50;86.40
81315;DHT22;72214;52.510;5.718;2023-11-19T02:14:32;12.50;86.30
81315;DHT22;72214;52.510;5.718;2023-11-19T02:17:02;12.50;86.30
81315;DHT22;72214;52.510;5.718;2023-11-19T02:19:31;12.50;86.30
81315;DHT22;72214;52.510;5.718;2023-11-19T02:22:00;12.50;86.30
81315;DHT22;72214;52.510;5.718;2023-11-19T02:24:30;12.50;86.30
81315;DHT22;72214;52.510;5.718;2023-11-19T02:27:10;12.50;86.30
81315;DHT22;72214;52.510;5.718;2023-11-19T02:29:46;12.50;86.30
81315;DHT22;72214;52.510;5.718;2023-11-19T02:32:16;12.50;86.40
81315;DHT22;72214;52.510;5.718;2023-11-19T02:34:45;12.50;86.30
81315;DHT22;72214;52.510;5.718;2023-11-19T02:37:14;12.50;86.30
81315;DHT22;72214;52.510;5.718;2023-11-19T02:39:45;12.50;86.30
81315;DHT22;72214;52.510;5.718;2023-11-19T02:42:15;12.50;86.30
81315;DHT22;72214;52.510;5.718;2023-11-19T02:44:47;12.50;86.30
81315;DHT22;72214;52.510;5.718;2023-11-19T02:47:16;12.50;86.30
81315;DHT22;72214;52.510;5.718;2023-11-19T02:49:47;12.50;86.30
81315;DHT22;72214;52.510;5.718;2023-11-19T02:52:16;12.50;86.30
81315;DHT22;72214;52.510;5.718;2023-11-19T02:54:45;12.50;86.20
81315;DHT22;72214;52.510;5.718;2023-11-19T02:57:14;12.50;86.20
81315;DHT22;72214;52.510;5.718;2023-11-19T02:59:48;12.50;86.20
81315;DHT22;72214;52.510;5.718;2023-11-19T03:02:17;12.50;86.20
81315;DHT22;72214;52.510;5.718;2023-11-19T03:04:47;12.50;86.10
81315;DHT22;72214;52.510;5.718;2023-11-19T03:07:16;12.50;86.20
81315;DHT22;72214;52.510;5.718;2023-11-19T03:09:45;12.50;86.20
81315;DHT22;72214;52.510;5.718;2023-11-19T03:12:15;12.50;86.20
81315;DHT22;72214;52.510;5.718;2023-11-19T03:14:47;12.50;86.20
81315;DHT22;72214;52.510;5.718;2023-11-19T03:17:16;12.50;86.20
81315;DHT22;72214;52.510;5.718;2023-11-19T03:19:46;12.50;86.10
81315;DHT22;72214;52.510;5.718;2023-11-19T03:22:15;12.40;86.20
81315;DHT22;72214;52.510;5.718;2023-11-19T03:24:44;12.40;86.10
81315;DHT22;72214;52.510;5.718;2023-11-19T03:27:13;12.40;86.00
81315;DHT22;72214;52.510;5.718;2023-11-19T03:29:42;12.30;86.10
81315;DHT22;72214;52.510;5.718;2023-11-19T03:32:14;12.30;86.10
81315;DHT22;72214;52.510;5.718;2023-11-19T03:34:43;12.30;86.10
81315;DHT22;72214;52.510;5.718;2023-11-19T03:37:13;12.20;86.10
81315;DHT22;72214;52.510;5.718;2023-11-19T03:39:43;12.20;86.00
81315;DHT22;72214;52.510;5.718;2023-11-19T03:42:12;12.20;86.10
81315;DHT22;72214;52.510;5.718;2023-11-19T03:44:42;12.10;86.10
81315;DHT22;72214;52.510;5.718;2023-11-19T03:47:13;12.10;86.10
81315;DHT22;72214;52.510;5.718;2023-11-19T03:49:42;12.10;86.10
81315;DHT22;72214;52.510;5.718;2023-11-19T03:52:15;12.10;86.00
81315;DHT22;72214;52.510;5.718;2023-11-19T03:54:45;12.00;86.00
81315;DHT22;72214;52.510;5.718;2023-11-19T03:57:14;12.00;86.00
81315;DHT22;72214;52.510;5.718;2023-11-19T03:59:43;12.00;85.90
81315;DHT22;72214;52.510;5.718;2023-11-19T04:02:15;12.00;85.90
81315;DHT22;72214;52.510;5.718;2023-11-19T04:04:44;12.00;85.90
81315;DHT22;72214;52.510;5.718;2023-11-19T04:07:14;12.00;85.80
81315;DHT22;72214;52.510;5.718;2023-11-19T04:09:43;12.00;85.90
81315;DHT22;72214;52.510;5.718;2023-11-19T04:12:12;11.90;85.90
81315;DHT22;72214;52.510;5.718;2023-11-19T04:14:42;12.00;85.90
81315;DHT22;72214;52.510;5.718;2023-11-19T04:17:14;12.00;85.80
81315;DHT22;72214;52.510;5.718;2023-11-19T04:19:43;12.00;85.80
81315;DHT22;72214;52.510;5.718;2023-11-19T04:22:12;12.00;85.80
81315;DHT22;72214;52.510;5.718;2023-11-19T04:24:42;12.00;85.70
81315;DHT22;72214;52.510;5.718;2023-11-19T04:27:11;12.00;85.70
81315;DHT22;72214;52.510;5.718;2023-11-19T04:29:41;12.00;85.70
81315;DHT22;72214;52.510;5.718;2023-11-19T04:32:14;12.00;85.60
81315;DHT22;72214;52.510;5.718;2023-11-19T04:34:44;12.00;85.70
81315;DHT22;72214;52.510;5.718;2023-11-19T04:37:13;12.00;85.60
81315;DHT22;72214;52.510;5.718;2023-11-19T04:39:44;12.00;85.50
81315;DHT22;72214;52.510;5.718;2023-11-19T04:42:13;12.00;85.50
81315;DHT22;72214;52.510;5.718;2023-11-19T04:44:43;12.00;85.50
81315;DHT22;72214;52.510;5.718;2023-11-19T04:47:15;12.00;85.50
81315;DHT22;72214;52.510;5.718;2023-11-19T04:49:44;12.00;85.40
81315;DHT22;72214;52.510;5.718;2023-11-19T04:52:13;12.00;85.40
81315;DHT22;72214;52.510;5.718;2023-11-19T04:54:42;12.00;85.40
81315;DHT22;72214;52.510;5.718;2023-11-19T04:57:12;12.00;85.30
81315;DHT22;72214;52.510;5.718;2023-11-19T04:59:41;12.00;85.30
81315;DHT22;72214;52.510;5.718;2023-11-19T05:02:10;12.00;85.30
81315;DHT22;72214;52.510;5.718;2023-11-19T05:04:45;12.00;85.30
81315;DHT22;72214;52.510;5.718;2023-11-19T05:07:15;12.10;85.20
81315;DHT22;72214;52.510;5.718;2023-11-19T05:09:44;12.00;85.10
81315;DHT22;72214;52.510;5.718;2023-11-19T05:12:13;12.00;85.10
81315;DHT22;72214;52.510;5.718;2023-11-19T05:14:42;12.00;85.10
81315;DHT22;72214;52.510;5.718;2023-11-19T05:17:15;11.90;85.10
81315;DHT22;72214;52.510;5.718;2023-11-19T05:19:47;11.90;85.20
81315;DHT22;72214;52.510;5.718;2023-11-19T05:22:17;11.90;85.20
81315;DHT22;72214;52.510;5.718;2023-11-19T05:24:46;11.90;85.20
81315;DHT22;72214;52.510;5.718;2023-11-19T05:27:16;11.90;85.20
81315;DHT22;72214;52.510;5.718;2023-11-19T05:29:45;11.90;85.10
81315;DHT22;72214;52.510;5.718;2023-11-19T05:32:14;11.90;85.20
81315;DHT22;72214;52.510;5.718;2023-11-19T05:34:43;11.90;85.10
81315;DHT22;72214;52.510;5.718;2023-11-19T05:37:15;11.90;85.00
81315;DHT22;72214;52.510;5.718;2023-11-19T05:39:45;11.90;85.00
81315;DHT22;72214;52.510;5.718;2023-11-19T05:42:14;11.90;85.00
81315;DHT22;72214;52.510;5.718;2023-11-19T05:44:43;11.80;85.00
81315;DHT22;72214;52.510;5.718;2023-11-19T05:47:12;11.80;85.00
81315;DHT22;72214;52.510;5.718;2023-11-19T05:49:41;11.80;84.90
81315;DHT22;72214;52.510;5.718;2023-11-19T05:52:10;11.90;84.90
81315;DHT22;72214;52.510;5.718;2023-11-19T05:54:42;11.90;84.90
81315;DHT22;72214;52.510;5.718;2023-11-19T05:57:13;11.90;84.70
81315;DHT22;72214;52.510;5.718;2023-11-19T05:59:46;11.90;84.70
81315;DHT22;72214;52.510;5.718;2023-11-19T06:02:16;11.90;84.70
81315;DHT22;72214;52.510;5.718;2023-11-19T06:04:45;11.90;84.70
81315;DHT22;72214;52.510;5.718;2023-11-19T06:07:14;11.90;84.70
81315;DHT22;72214;52.510;5.718;2023-11-19T06:09:46;11.80;84.70
81315;DHT22;72214;52.510;5.718;2023-11-19T06:12:15;11.80;84.80
81315;DHT22;72214;52.510;5.718;2023-11-19T06:14:44;11.80;84.70
81315;DHT22;72214;52.510;5.718;2023-11-19T06:17:13;11.80;84.70
81315;DHT22;72214;52.510;5.718;2023-11-19T06:19:42;11.70;84.80
81315;DHT22;72214;52.510;5.718;2023-11-19T06:22:11;11.70;84.70
81315;DHT22;72214;52.510;5.718;2023-11-19T06:24:40;11.70;84.70
81315;DHT22;72214;52.510;5.718;2023-11-19T06:27:12;11.70;84.70
81315;DHT22;72214;52.510;5.718;2023-11-19T06:29:42;11.70;84.60
81315;DHT22;72214;52.510;5.718;2023-11-19T06:32:11;11.70;84.60
81315;DHT22;72214;52.510;5.718;2023-11-19T06:34:41;11.70;84.60
81315;DHT22;72214;52.510;5.718;2023-11-19T06:37:10;11.70;84.60
81315;DHT22;72214;52.510;5.718;2023-11-19T06:39:39;11.70;84.50
81315;DHT22;72214;52.510;5.718;2023-11-19T06:42:11;11.70;84.40
81315;DHT22;72214;52.510;5.718;2023-11-19T06:44:40;11.70;84.40
81315;DHT22;72214;52.510;5.718;2023-11-19T06:47:09;11.70;84.40
81315;DHT22;72214;52.510;5.718;2023-11-19T06:49:38;11.60;84.40
81315;DHT22;72214;52.510;5.718;2023-11-19T06:52:07;11.60;84.40
81315;DHT22;72214;52.510;5.718;2023-11-19T06:54:38;11.50;84.40
81315;DHT22;72214;52.510;5.718;2023-11-19T06:57:07;11.50;84.40
81315;DHT22;72214;52.510;5.718;2023-11-19T06:59:40;11.50;84.30
81315;DHT22;72214;52.510;5.718;2023-11-19T07:02:10;11.50;84.30
81315;DHT22;72214;52.510;5.718;2023-11-19T07:04:40;11.50;84.20
81315;DHT22;72214;52.510;5.718;2023-11-19T07:07:09;11.50;84.30
81315;DHT22;72214;52.510;5.718;2023-11-19T07:09:41;11.50;84.20
81315;DHT22;72214;52.510;5.718;2023-11-19T07:12:10;11.50;84.20
81315;DHT22;72214;52.510;5.718;2023-11-19T07:14:43;11.50;84.10
81315;DHT22;72214;52.510;5.718;2023-11-19T07:17:12;11.50;84.10
81315;DHT22;72214;52.510;5.718;2023-11-19T07:19:41;11.50;84.10
81315;DHT22;72214;52.510;5.718;2023-11-19T07:22:10;11.50;84.00
81315;DHT22;72214;52.510;5.718;2023-11-19T07:24:39;11.50;83.90
81315;DHT22;72214;52.510;5.718;2023-11-19T07:27:09;11.60;83.90
81315;DHT22;72214;52.510;5.718;2023-11-19T07:29:39;11.50;83.90
81315;DHT22;72214;52.510;5.718;2023-11-19T07:32:10;11.60;83.90
81315;DHT22;72214;52.510;5.718;2023-11-19T07:34:40;11.60;83.80
81315;DHT22;72214;52.510;5.718;2023-11-19T07:37:09;11.60;83.80
81315;DHT22;72214;52.510;5.718;2023-11-19T07:39:38;11.60;83.80
81315;DHT22;72214;52.510;5.718;2023-11-19T07:42:07;11.70;83.70
81315;DHT22;72214;52.510;5.718;2023-11-19T07:44:36;11.70;83.70
81315;DHT22;72214;52.510;5.718;2023-11-19T07:47:05;11.70;83.70
81315;DHT22;72214;52.510;5.718;2023-11-19T07:49:37;11.70;83.60
81315;DHT22;72214;52.510;5.718;2023-11-19T07:52:06;11.70;83.70
81315;DHT22;72214;52.510;5.718;2023-11-19T07:54:35;11.70;83.60
81315;DHT22;72214;52.510;5.718;2023-11-19T07:57:04;11.70;83.60
81315;DHT22;72214;52.510;5.718;2023-11-19T07:59:33;11.70;83.60
81315;DHT22;72214;52.510;5.718;2023-11-19T08:02:03;11.70;83.60
81315;DHT22;72214;52.510;5.718;2023-11-19T08:04:32;11.70;83.60
81315;DHT22;72214;52.510;5.718;2023-11-19T08:07:04;11.70;83.60
81315;DHT22;72214;52.510;5.718;2023-11-19T08:09:33;11.70;83.60
81315;DHT22;72214;52.510;5.718;2023-11-19T08:12:02;11.70;83.50
81315;DHT22;72214;52.510;5.718;2023-11-19T08:14:32;11.80;83.50
81315;DHT22;72214;52.510;5.718;2023-11-19T08:17:01;11.80;83.50
81315;DHT22;72214;52.510;5.718;2023-11-19T08:19:30;11.80;83.50
81315;DHT22;72214;52.510;5.718;2023-11-19T08:22:00;11.80;83.50
81315;DHT22;72214;52.510;5.718;2023-11-19T08:24:31;11.90;83.50
81315;DHT22;72214;52.510;5.718;2023-11-19T08:27:00;11.90;83.50
81315;DHT22;72214;52.510;5.718;2023-11-19T08:29:30;11.90;83.50
81315;DHT22;72214;52.510;5.718;2023-11-19T08:32:00;11.80;83.50
81315;DHT22;72214;52.510;5.718;2023-11-19T08:34:29;11.80;83.50
81315;DHT22;72214;52.510;5.718;2023-11-19T08:36:59;11.80;83.50
81315;DHT22;72214;52.510;5.718;2023-11-19T08:39:31;11.80;83.50
81315;DHT22;72214;52.510;5.718;2023-11-19T08:42:01;11.80;83.50
81315;DHT22;72214;52.510;5.718;2023-11-19T08:44:30;11.90;83.50
81315;DHT22;72214;52.510;5.718;2023-11-19T08:46:59;11.80;83.50
81315;DHT22;72214;52.510;5.718;2023-11-19T08:49:28;11.90;83.40
81315;DHT22;72214;52.510;5.718;2023-11-19T08:51:57;11.90;83.40
81315;DHT22;72214;52.510;5.718;2023-11-19T08:54:26;11.90;83.30
81315;DHT22;72214;52.510;5.718;2023-11-19T08:56:58;11.90;83.30
81315;DHT22;72214;52.510;5.718;2023-11-19T08:59:27;11.90;83.20
81315;DHT22;72214;52.510;5.718;2023-11-19T09:01:56;12.00;83.20
81315;DHT22;72214;52.510;5.718;2023-11-19T09:04:25;12.00;83.20
81315;DHT22;72214;52.510;5.718;2023-11-19T09:06:54;12.00;83.10
81315;DHT22;72214;52.510;5.718;2023-11-19T09:09:24;12.10;83.10
81315;DHT22;72214;52.510;5.718;2023-11-19T09:11:53;12.10;83.00
81315;DHT22;72214;52.510;5.718;2023-11-19T09:14:24;12.20;83.00
81315;DHT22;72214;52.510;5.718;2023-11-19T09:16:53;12.20;83.00
81315;DHT22;72214;52.510;5.718;2023-11-19T09:19:23;12.20;82.90
81315;DHT22;72214;52.510;5.718;2023-11-19T09:21:52;12.20;83.00
81315;DHT22;72214;52.510;5.718;2023-11-19T09:24:21;12.30;82.90
81315;DHT22;72214;52.510;5.718;2023-11-19T09:26:50;12.30;83.00
81315;DHT22;72214;52.510;5.718;2023-11-19T09:29:21;12.30;83.00
81315;DHT22;72214;52.510;5.718;2023-11-19T09:31:52;12.40;83.00
81315;DHT22;72214;52.510;5.718;2023-11-19T09:34:21;12.40;83.00
81315;DHT22;72214;52.510;5.718;2023-11-19T09:36:51;12.50;82.90
81315;DHT22;72214;52.510;5.718;2023-11-19T09:39:20;12.50;82.80
81315;DHT22;72214;52.510;5.718;2023-11-19T09:41:49;12.50;82.90
81315;DHT22;72214;52.510;5.718;2023-11-19T09:44:18;12.50;82.80
81315;DHT22;72214;52.510;5.718;2023-11-19T09:46:48;12.50;82.90
81315;DHT22;72214;52.510;5.718;2023-11-19T09:49:24;12.50;82.90
81315;DHT22;72214;52.510;5.718;2023-11-19T09:51:55;12.50;82.90
81315;DHT22;72214;52.510;5.718;2023-11-19T09:54:24;12.40;82.90
81315;DHT22;72214;52.510;5.718;2023-11-19T09:56:54;12.40;83.00
81315;DHT22;72214;52.510;5.718;2023-11-19T09:59:26;12.40;83.00
81315;DHT22;72214;52.510;5.718;2023-11-19T10:01:56;12.40;83.00
81315;DHT22;72214;52.510;5.718;2023-11-19T10:04:30;12.30;83.00
81315;DHT22;72214;52.510;5.718;2023-11-19T10:06:59;12.40;83.10
81315;DHT22;72214;52.510;5.718;2023-11-19T10:09:28;12.40;83.00
81315;DHT22;72214;52.510;5.718;2023-11-19T10:11:57;12.40;83.00
81315;DHT22;72214;52.510;5.718;2023-11-19T10:14:28;12.40;83.00
81315;DHT22;72214;52.510;5.718;2023-11-19T10:17:01;12.40;83.00
81315;DHT22;72214;52.510;5.718;2023-11-19T10:19:34;12.40;83.00
81315;DHT22;72214;52.510;5.718;2023-11-19T10:22:04;12.50;82.90
81315;DHT22;72214;52.510;5.718;2023-11-19T10:24:34;12.50;83.00
81315;DHT22;72214;52.510;5.718;2023-11-19T10:27:06;12.50;83.00
81315;DHT22;72214;52.510;5.718;2023-11-19T10:29:36;12.50;82.90
81315;DHT22;72214;52.510;5.718;2023-11-19T10:32:06;12.50;82.90
81315;DHT22;72214;52.510;5.718;2023-11-19T10:34:38;12.50;82.80
81315;DHT22;72214;52.510;5.718;2023-11-19T10:37:07;12.50;82.80
81315;DHT22;72214;52.510;5.718;2023-11-19T10:39:52;12.50;82.80
81315;DHT22;72214;52.510;5.718;2023-11-19T10:42:22;12.50;82.80
81315;DHT22;72214;52.510;5.718;2023-11-19T10:44:51;12.50;82.80
81315;DHT22;72214;52.510;5.718;2023-11-19T10:47:22;12.50;82.80
81315;DHT22;72214;52.510;5.718;2023-11-19T10:49:54;12.50;82.80
81315;DHT22;72214;52.510;5.718;2023-11-19T10:52:24;12.50;82.80
81315;DHT22;72214;52.510;5.718;2023-11-19T10:54:56;12.50;82.90
81315;DHT22;72214;52.510;5.718;2023-11-19T10:57:30;12.50;83.00
81315;DHT22;72214;52.510;5.718;2023-11-19T11:00:02;12.40;83.10
81315;DHT22;72214;52.510;5.718;2023-11-19T11:02:41;12.30;83.20
81315;DHT22;72214;52.510;5.718;2023-11-19T11:05:14;12.30;83.20
81315;DHT22;72214;52.510;5.718;2023-11-19T11:07:45;12.30;83.20
81315;DHT22;72214;52.510;5.718;2023-11-19T11:10:16;12.30;83.20
81315;DHT22;72214;52.510;5.718;2023-11-19T11:12:48;12.30;83.20
81315;DHT22;72214;52.510;5.718;2023-11-19T11:15:25;12.30;83.20
81315;DHT22;72214;52.510;5.718;2023-11-19T11:17:59;12.30;83.20
81315;DHT22;72214;52.510;5.718;2023-11-19T11:20:33;12.30;83.20
81315;DHT22;72214;52.510;5.718;2023-11-19T11:23:24;12.20;83.20
81315;DHT22;72214;52.510;5.718;2023-11-19T11:26:06;12.20;83.20
81315;DHT22;72214;52.510;5.718;2023-11-19T11:28:43;12.20;83.20
81315;DHT22;72214;52.510;5.718;2023-11-19T11:31:23;12.30;83.10
81315;DHT22;72214;52.510;5.718;2023-11-19T11:34:19;12.30;83.00
81315;DHT22;72214;52.510;5.718;2023-11-19T11:37:06;12.30;83.00
81315;DHT22;72214;52.510;5.718;2023-11-19T11:39:40;12.40;82.90
81315;DHT22;72214;52.510;5.718;2023-11-19T11:42:31;12.50;82.90
81315;DHT22;72214;52.510;5.718;2023-11-19T11:45:02;12.50;82.80
81315;DHT22;72214;52.510;5.718;2023-11-19T11:50:32;12.50;82.80
81315;DHT22;72214;52.510;5.718;2023-11-19T11:53:19;12.50;82.70
81315;DHT22;72214;52.510;5.718;2023-11-19T11:55:54;12.50;82.80
81315;DHT22;72214;52.510;5.718;2023-11-19T11:58:35;12.50;82.80
81315;DHT22;72214;52.510;5.718;2023-11-19T12:01:05;12.50;82.70
81315;DHT22;72214;52.510;5.718;2023-11-19T12:03:38;12.50;82.70
81315;DHT22;72214;52.510;5.718;2023-11-19T12:06:08;12.50;82.70
81315;DHT22;72214;52.510;5.718;2023-11-19T12:08:41;12.60;82.70
81315;DHT22;72214;52.510;5.718;2023-11-19T12:11:10;12.70;82.60
81315;DHT22;72214;52.510;5.718;2023-11-19T12:13:47;12.70;82.50
81315;DHT22;72214;52.510;5.718;2023-11-19T12:16:22;12.80;82.40
81315;DHT22;72214;52.510;5.718;2023-11-19T12:18:54;12.80;82.40
81315;DHT22;72214;52.510;5.718;2023-11-19T12:21:30;12.80;82.30
81315;DHT22;72214;52.510;5.718;2023-11-19T12:24:06;12.80;82.30
81315;DHT22;72214;52.510;5.718;2023-11-19T12:26:37;12.80;82.30
81315;DHT22;72214;52.510;5.718;2023-11-19T12:29:07;12.80;82.40
81315;DHT22;72214;52.510;5.718;2023-11-19T12:31:37;12.80;82.30
81315;DHT22;72214;52.510;5.718;2023-11-19T12:34:07;12.80;82.20
81315;DHT22;72214;52.510;5.718;2023-11-19T12:36:39;12.80;82.20
81315;DHT22;72214;52.510;5.718;2023-11-19T12:39:11;12.80;82.10
81315;DHT22;72214;52.510;5.718;2023-11-19T12:41:54;12.80;82.10
81315;DHT22;72214;52.510;5.718;2023-11-19T12:44:25;12.80;82.00
81315;DHT22;72214;52.510;5.718;2023-11-19T12:47:01;12.80;82.00
81315;DHT22;72214;52.510;5.718;2023-11-19T12:49:30;12.80;81.90
81315;DHT22;72214;52.510;5.718;2023-11-19T12:51:59;12.80;81.90
81315;DHT22;72214;52.510;5.718;2023-11-19T12:54:35;12.80;81.90
81315;DHT22;72214;52.510;5.718;2023-11-19T12:57:05;12.80;81.90
81315;DHT22;72214;52.510;5.718;2023-11-19T12:59:34;12.80;81.90
81315;DHT22;72214;52.510;5.718;2023-11-19T13:02:03;12.80;81.90
81315;DHT22;72214;52.510;5.718;2023-11-19T13:04:33;12.80;81.80
81315;DHT22;72214;52.510;5.718;2023-11-19T13:07:02;12.80;81.80
81315;DHT22;72214;52.510;5.718;2023-11-19T13:09:35;12.80;81.80
81315;DHT22;72214;52.510;5.718;2023-11-19T13:12:13;12.80;81.80
81315;DHT22;72214;52.510;5.718;2023-11-19T13:14:42;12.80;81.70
81315;DHT22;72214;52.510;5.718;2023-11-19T13:17:14;12.80;81.70
81315;DHT22;72214;52.510;5.718;2023-11-19T13:19:43;12.80;81.60
81315;DHT22;72214;52.510;5.718;2023-11-19T13:22:12;12.80;81.60
81315;DHT22;72214;52.510;5.718;2023-11-19T13:24:44;12.80;81.60
81315;DHT22;72214;52.510;5.718;2023-11-19T13:27:13;12.70;81.70
81315;DHT22;72214;52.510;5.718;2023-11-19T13:29:42;12.60;81.80
81315;DHT22;72214;52.510;5.718;2023-11-19T13:32:11;12.50;82.00
81315;DHT22;72214;52.510;5.718;2023-11-19T13:34:40;12.50;82.10
81315;DHT22;72214;52.510;5.718;2023-11-19T13:37:10;12.50;82.10
81315;DHT22;72214;52.510;5.718;2023-11-19T13:39:44;12.30;82.20
81315;DHT22;72214;52.510;5.718;2023-11-19T13:42:13;12.20;82.30
81315;DHT22;72214;52.510;5.718;2023-11-19T13:44:42;12.20;82.40
81315;DHT22;72214;52.510;5.718;2023-11-19T13:47:11;12.10;82.50
81315;DHT22;72214;52.510;5.718;2023-11-19T13:49:40;12.10;82.60
81315;DHT22;72214;52.510;5.718;2023-11-19T13:52:09;12.10;82.70
81315;DHT22;72214;52.510;5.718;2023-11-19T13:54:39;12.00;82.80
81315;DHT22;72214;52.510;5.718;2023-11-19T13:57:10;12.00;82.80
81315;DHT22;72214;52.510;5.718;2023-11-19T13:59:40;12.00;82.80
81315;DHT22;72214;52.510;5.718;2023-11-19T14:02:09;12.00;82.80
81315;DHT22;72214;52.510;5.718;2023-11-19T14:04:38;12.00;82.80
81315;DHT22;72214;52.510;5.718;2023-11-19T14:07:07;12.00;82.80
81315;DHT22;72214;52.510;5.718;2023-11-19T14:09:36;12.00;82.80
81315;DHT22;72214;52.510;5.718;2023-11-19T14:12:06;11.90;82.80
81315;DHT22;72214;52.510;5.718;2023-11-19T14:14:38;11.90;82.80
81315;DHT22;72214;52.510;5.718;2023-11-19T14:17:08;11.90;82.80
81315;DHT22;72214;52.510;5.718;2023-11-19T14:19:37;11.90;82.80
81315;DHT22;72214;52.510;5.718;2023-11-19T14:22:06;11.90;82.80
81315;DHT22;72214;52.510;5.718;2023-11-19T14:24:36;11.90;82.80
81315;DHT22;72214;52.510;5.718;2023-11-19T14:27:06;12.00;82.80
81315;DHT22;72214;52.510;5.718;2023-11-19T14:29:38;12.00;82.80
81315;DHT22;72214;52.510;5.718;2023-11-19T14:32:07;12.00;82.90
81315;DHT22;72214;52.510;5.718;2023-11-19T14:34:36;12.00;82.80
81315;DHT22;72214;52.510;5.718;2023-11-19T14:37:06;12.00;82.90
81315;DHT22;72214;52.510;5.718;2023-11-19T14:39:35;12.00;82.90
81315;DHT22;72214;52.510;5.718;2023-11-19T14:42:04;12.10;82.80
81315;DHT22;72214;52.510;5.718;2023-11-19T14:44:34;12.10;82.80
81315;DHT22;72214;52.510;5.718;2023-11-19T14:47:06;12.10;82.80
81315;DHT22;72214;52.510;5.718;2023-11-19T14:49:36;12.10;82.80
81315;DHT22;72214;52.510;5.718;2023-11-19T14:52:05;12.10;82.70
81315;DHT22;72214;52.510;5.718;2023-11-19T14:54:35;12.10;82.70
81315;DHT22;72214;52.510;5.718;2023-11-19T14:57:05;12.20;82.60
81315;DHT22;72214;52.510;5.718;2023-11-19T14:59:34;12.20;82.60
81315;DHT22;72214;52.510;5.718;2023-11-19T15:02:06;12.20;82.60
81315;DHT22;72214;52.510;5.718;2023-11-19T15:04:35;12.20;82.70
81315;DHT22;72214;52.510;5.718;2023-11-19T15:07:04;12.20;82.70
81315;DHT22;72214;52.510;5.718;2023-11-19T15:09:33;12.20;82.70
81315;DHT22;72214;52.510;5.718;2023-11-19T15:12:04;12.20;82.70
81315;DHT22;72214;52.510;5.718;2023-11-19T15:14:33;12.20;82.70
81315;DHT22;72214;52.510;5.718;2023-11-19T15:17:02;12.20;82.70
81315;DHT22;72214;52.510;5.718;2023-11-19T15:19:35;12.20;82.60
81315;DHT22;72214;52.510;5.718;2023-11-19T15:22:05;12.20;82.70
81315;DHT22;72214;52.510;5.718;2023-11-19T15:24:37;12.20;82.70
81315;DHT22;72214;52.510;5.718;2023-11-19T15:27:07;12.20;82.70
81315;DHT22;72214;52.510;5.718;2023-11-19T15:29:38;12.20;82.60
81315;DHT22;72214;52.510;5.718;2023-11-19T15:32:07;12.10;82.60
81315;DHT22;72214;52.510;5.718;2023-11-19T15:34:39;12.10;82.60
81315;DHT22;72214;52.510;5.718;2023-11-19T15:37:08;12.10;82.70
81315;DHT22;72214;52.510;5.718;2023-11-19T15:39:39;12.10;82.70
81315;DHT22;72214;52.510;5.718;2023-11-19T15:42:08;12.10;82.70
81315;DHT22;72214;52.510;5.718;2023-11-19T15:44:38;12.10;82.80
81315;DHT22;72214;52.510;5.718;2023-11-19T15:47:09;12.00;82.70
81315;DHT22;72214;52.510;5.718;2023-11-19T15:49:43;12.00;82.80
81315;DHT22;72214;52.510;5.718;2023-11-19T15:52:12;12.00;82.70
81315;DHT22;72214;52.510;5.718;2023-11-19T15:54:41;12.00;82.70